Chase, Kansas
Current Conditions -  °F | °C
As of 3:15 AM on Friday 24 Oct 2014 (Local Time) from KGBD Reporting Station
Clear Clear  
Wind Chill: 55°   Ceiling: Unl
Heat Index: 55°   Visibility: 3mi
Dew Point: 54°   Wind: 6mph
Humidity: 94%   Direction: 180°S
Pressure: 30.05"   Gusts: NA
Location:  38.36°N, 98.35°W
Report Text: KGBD 240815Z AUTO 18005KT 3SM CLR 13/12 A3005 RMK AO1
Loading
Personal Weather Stations






























Interactive Weather Map
Tropical Storm Tracking
New forecast layout! Learn more

10-Day Weather Forecast

Advertisements
Track Severe Weather on mobile